Terminal Aerodrome Forecast
Issued by NWS Paducah, KY

Home | Current Version | Previous Version | Text Only | Print | Product List | Glossary On
Versions: 1 2 3 4 5 6 7 8 9 10 11 12 13 14 15
000
FTUS43 KPAH 281200 AAA
TAFPAH
TAF AMD
KPAH 281202Z 2812/2912 34008KT P6SM SCT008 OVC015
      TEMPO 2812/2814 BKN008
     FM282300 01008KT P6SM SCT025 BKN250
     FM290200 03003KT P6SM SCT250=

USA.gov is the U.S. government's official web portal to all federal, state and local government web resources and services.